Time;durP1;ratioP1;P1;durP2;ratioP2;P2;SDS_P1;SDS_P2;PMS_P1;PMS_P2;Temp;Humidity;BMP_temperature;BMP_pressure;BME280_temperature;BME280_humidity;BME280_pressure;Samples;Min_cycle;Max_cycle;Signal;HPM_P1;HPM_P2
2022/10/17 00:00:50;;;;;;;;;;;15.10;99.90;;;;;;4954498;28;19972;-65
2022/10/17 00:03:18;;;;;;;;;;;15.10;99.90;;;;;;4954027;29;20370;-65
2022/10/17 00:05:48;;;;;;;;;;;15.20;99.90;;;;;;4954288;28;19973;-64
2022/10/17 00:08:16;;;;;;;;;;;15.20;99.90;;;;;;4953504;29;20443;-64
2022/10/17 00:10:44;;;;;;;;;;;15.20;99.90;;;;;;4953789;29;19977;-65
2022/10/17 00:13:12;;;;;;;;;;;15.30;99.90;;;;;;4953795;29;19969;-65
2022/10/17 00:15:43;;;;;;;;;;;15.30;99.90;;;;;;4953909;28;20445;-65
2022/10/17 00:18:11;;;;;;;;;;;15.30;99.90;;;;;;4954408;28;19980;-65
2022/10/17 00:20:38;;;;;;;;;;;15.40;99.90;;;;;;4953613;28;19974;-65
2022/10/17 00:23:07;;;;;;;;;;;15.30;99.90;;;;;;4953925;28;19974;-65
2022/10/17 00:25:35;;;;;;;;;;;15.30;99.90;;;;;;4953465;29;19978;-65
2022/10/17 00:28:03;;;;;;;;;;;15.40;99.90;;;;;;4953435;28;19976;-65
2022/10/17 00:30:31;;;;;;;;;;;15.40;99.90;;;;;;4953624;29;19973;-65
2022/10/17 00:32:59;;;;;;;;;;;15.30;99.90;;;;;;4953587;29;19970;-65
2022/10/17 00:35:27;;;;;;;;;;;15.30;99.90;;;;;;4954147;28;19980;-65
2022/10/17 00:37:54;;;;;;;;;;;15.30;99.90;;;;;;4953392;29;19970;-64
2022/10/17 00:40:23;;;;;;;;;;;15.20;99.90;;;;;;4954666;28;20371;-65
2022/10/17 00:42:52;;;;;;;;;;;15.20;99.90;;;;;;4972776;28;19969;-65
2022/10/17 00:45:21;;;;;;;;;;;15.20;99.90;;;;;;4972663;28;20442;-65
2022/10/17 00:47:51;;;;;;;;;;;15.20;99.90;;;;;;4972545;28;19979;-64
2022/10/17 00:50:19;;;;;;;;;;;15.20;99.90;;;;;;4972341;28;20043;-64
2022/10/17 00:52:47;;;;;;;;;;;15.20;99.90;;;;;;4954607;28;19978;-64
2022/10/17 00:55:17;;;;;;;;;;;15.20;99.90;;;;;;4952643;28;19978;-64
2022/10/17 00:57:46;;;;;;;;;;;15.10;99.90;;;;;;4953119;29;20013;-64
2022/10/17 01:00:15;;;;;;;;;;;15.10;99.90;;;;;;4953049;29;19968;-64
2022/10/17 01:02:42;;;;;;;;;;;15.20;99.90;;;;;;4953258;29;20057;-65
2022/10/17 01:05:10;;;;;;;;;;;15.20;99.90;;;;;;4953128;29;20068;-64
2022/10/17 01:07:40;;;;;;;;;;;15.30;99.90;;;;;;4953137;28;19970;-64
2022/10/17 01:10:08;;;;;;;;;;;15.30;99.90;;;;;;4952904;29;19970;-64
2022/10/17 01:12:45;;;;;;;;;;;15.30;99.90;;;;;;4953022;29;20032;-64
2022/10/17 01:15:19;;;;;;;;;;;15.30;99.90;;;;;;4952972;28;19991;-65
2022/10/17 01:17:53;;;;;;;;;;;15.40;99.90;;;;;;4952958;28;19970;-64
2022/10/17 01:20:39;;;;;;;;;;;15.30;99.90;;;;;;4952963;28;20067;-65
2022/10/17 01:23:16;;;;;;;;;;;15.30;99.90;;;;;;4952959;28;19976;-65
2022/10/17 01:25:49;;;;;;;;;;;15.30;99.90;;;;;;4953160;28;20446;-65
2022/10/17 01:28:23;;;;;;;;;;;15.20;99.90;;;;;;4952686;29;19976;-65
2022/10/17 01:30:59;;;;;;;;;;;15.20;99.90;;;;;;4952698;29;19969;-65
2022/10/17 01:33:31;;;;;;;;;;;15.10;99.90;;;;;;4952645;29;19976;-64
2022/10/17 01:36:00;;;;;;;;;;;15.10;99.90;;;;;;4952890;29;19992;-64
2022/10/17 01:38:34;;;;;;;;;;;15.10;99.90;;;;;;4952894;28;20019;-64
2022/10/17 01:41:03;;;;;;;;;;;15.10;99.90;;;;;;4959164;28;19970;-64
2022/10/17 01:43:34;;;;;;;;;;;15.10;99.90;;;;;;4956246;28;19974;-65
2022/10/17 01:46:05;;;;;;;;;;;15.10;99.90;;;;;;4952984;29;19970;-64
2022/10/17 01:48:35;;;;;;;;;;;15.20;99.90;;;;;;4952455;29;19969;-65
2022/10/17 01:51:05;;;;;;;;;;;15.10;99.90;;;;;;4952297;28;20056;-64
2022/10/17 01:53:34;;;;;;;;;;;15.20;99.90;;;;;;4952307;28;19972;-65
2022/10/17 01:56:04;;;;;;;;;;;15.20;99.90;;;;;;4952497;29;20001;-64
2022/10/17 01:58:33;;;;;;;;;;;15.20;99.90;;;;;;4952402;28;20445;-64
2022/10/17 02:01:02;;;;;;;;;;;15.20;99.90;;;;;;4952268;28;20434;-64
2022/10/17 02:03:31;;;;;;;;;;;15.30;99.90;;;;;;4952278;29;20020;-64
2022/10/17 02:06:00;;;;;;;;;;;15.30;99.90;;;;;;4952251;28;19969;-65
2022/10/17 02:08:29;;;;;;;;;;;15.30;99.90;;;;;;4951767;29;19973;-65
2022/10/17 02:10:58;;;;;;;;;;;15.20;99.90;;;;;;4952083;29;19975;-65
2022/10/17 02:13:31;;;;;;;;;;;15.30;99.90;;;;;;4952169;28;20060;-65
2022/10/17 02:16:02;;;;;;;;;;;15.30;99.90;;;;;;4952868;28;19970;-65
2022/10/17 02:18:39;;;;;;;;;;;15.30;99.90;;;;;;4951949;29;19974;-64
2022/10/17 02:21:09;;;;;;;;;;;15.30;99.90;;;;;;4951897;29;20455;-64
2022/10/17 02:23:40;;;;;;;;;;;15.20;99.90;;;;;;4952162;29;19970;-65
2022/10/17 02:26:10;;;;;;;;;;;15.30;99.90;;;;;;4952284;28;19973;-64
2022/10/17 02:28:42;;;;;;;;;;;15.20;99.90;;;;;;4970468;28;20438;-65
2022/10/17 02:31:13;;;;;;;;;;;15.20;99.90;;;;;;4971076;28;19987;-64
2022/10/17 02:33:44;;;;;;;;;;;15.20;99.90;;;;;;4961777;28;19977;-64
2022/10/17 02:36:14;;;;;;;;;;;15.20;99.90;;;;;;4951880;29;19970;-64
2022/10/17 02:38:43;;;;;;;;;;;15.30;99.90;;;;;;4951628;29;19970;-64
2022/10/17 02:41:12;;;;;;;;;;;15.30;99.90;;;;;;4967542;28;19991;-64
2022/10/17 02:43:44;;;;;;;;;;;15.30;99.90;;;;;;4990280;28;19973;-64
2022/10/17 02:46:12;;;;;;;;;;;15.20;99.90;;;;;;4990447;28;19975;-65
2022/10/17 02:48:42;;;;;;;;;;;15.30;99.90;;;;;;4990026;28;20001;-64
2022/10/17 02:51:12;;;;;;;;;;;15.30;99.90;;;;;;4963402;28;20542;-64
2022/10/17 02:53:44;;;;;;;;;;;15.20;99.90;;;;;;4951736;29;20344;-64
2022/10/17 02:56:14;;;;;;;;;;;15.20;99.90;;;;;;4951522;29;19977;-64
2022/10/17 02:58:43;;;;;;;;;;;15.20;99.90;;;;;;4951325;28;19974;-64
2022/10/17 03:01:10;;;;;;;;;;;15.20;99.90;;;;;;4951223;28;19974;-64
2022/10/17 03:03:38;;;;;;;;;;;15.30;99.90;;;;;;4951492;29;20024;-64
2022/10/17 03:06:06;;;;;;;;;;;15.30;99.90;;;;;;4951671;29;19974;-64
2022/10/17 03:08:34;;;;;;;;;;;15.30;99.90;;;;;;4951096;28;19977;-64
2022/10/17 03:11:03;;;;;;;;;;;15.20;99.90;;;;;;4951198;29;19977;-64
2022/10/17 03:13:30;;;;;;;;;;;15.00;99.90;;;;;;4951228;29;19970;-64
2022/10/17 03:16:05;;;;;;;;;;;14.80;99.90;;;;;;4951265;28;20068;-64
2022/10/17 03:18:33;;;;;;;;;;;14.80;99.90;;;;;;4950525;29;20019;-65
2022/10/17 03:21:00;;;;;;;;;;;14.70;99.90;;;;;;4950982;29;20016;-64
2022/10/17 03:23:28;;;;;;;;;;;14.70;99.90;;;;;;4951048;28;19974;-64
2022/10/17 03:25:56;;;;;;;;;;;14.80;99.90;;;;;;4969942;28;19973;-64
2022/10/17 03:28:25;;;;;;;;;;;14.80;99.90;;;;;;4970249;28;20074;-64
2022/10/17 03:30:52;;;;;;;;;;;14.80;99.90;;;;;;4970132;28;19978;-64
2022/10/17 03:33:20;;;;;;;;;;;14.90;99.90;;;;;;4970441;28;20441;-64
2022/10/17 03:35:48;;;;;;;;;;;14.90;99.90;;;;;;4970401;28;19968;-64
2022/10/17 03:38:16;;;;;;;;;;;15.00;99.90;;;;;;4970152;28;19970;-65
2022/10/17 03:40:44;;;;;;;;;;;15.00;99.90;;;;;;4966015;28;19972;-64
2022/10/17 03:43:12;;;;;;;;;;;15.00;99.90;;;;;;4951068;29;19976;-64
2022/10/17 03:45:41;;;;;;;;;;;15.00;99.90;;;;;;4950980;29;19977;-64
2022/10/17 03:48:09;;;;;;;;;;;15.00;99.90;;;;;;4950955;29;19969;-64
2022/10/17 03:50:36;;;;;;;;;;;15.00;99.90;;;;;;4950553;29;19968;-64
2022/10/17 03:53:04;;;;;;;;;;;15.00;99.90;;;;;;4950818;29;19974;-64
2022/10/17 03:55:32;;;;;;;;;;;15.00;99.90;;;;;;4950714;29;19976;-64
2022/10/17 03:57:59;;;;;;;;;;;15.00;99.90;;;;;;4951339;28;19971;-64
2022/10/17 04:00:27;;;;;;;;;;;15.00;99.90;;;;;;4950394;29;19970;-64
2022/10/17 04:02:57;;;;;;;;;;;15.00;99.90;;;;;;4950780;29;19993;-63
2022/10/17 04:05:24;;;;;;;;;;;15.00;99.90;;;;;;4950631;29;19976;-65
2022/10/17 04:07:52;;;;;;;;;;;15.00;99.90;;;;;;4950212;29;19970;-65
2022/10/17 04:10:20;;;;;;;;;;;14.90;99.90;;;;;;4950273;29;19974;-64
2022/10/17 04:12:48;;;;;;;;;;;14.90;99.90;;;;;;4950624;28;20450;-64
2022/10/17 04:15:15;;;;;;;;;;;14.90;99.90;;;;;;4951021;28;19974;-64
2022/10/17 04:17:43;;;;;;;;;;;14.90;99.90;;;;;;4950666;29;19977;-64
2022/10/17 04:20:12;;;;;;;;;;;14.90;99.90;;;;;;4953345;28;19974;-64
2022/10/17 04:22:40;;;;;;;;;;;14.90;99.90;;;;;;4989055;28;20060;-64
2022/10/17 04:25:08;;;;;;;;;;;14.90;99.90;;;;;;4988880;28;19975;-64
2022/10/17 04:27:35;;;;;;;;;;;14.90;99.90;;;;;;4989073;28;19969;-64
2022/10/17 04:30:03;;;;;;;;;;;14.90;99.90;;;;;;5015960;28;20414;-64
2022/10/17 04:32:32;;;;;;;;;;;15.00;99.90;;;;;;5022456;28;19974;-64
2022/10/17 04:34:59;;;;;;;;;;;15.00;99.90;;;;;;4953471;29;20074;-64
2022/10/17 04:37:30;;;;;;;;;;;14.90;99.90;;;;;;4965181;28;19972;-63
2022/10/17 04:39:57;;;;;;;;;;;15.00;99.90;;;;;;4985940;28;19969;-63
2022/10/17 04:42:25;;;;;;;;;;;14.90;99.90;;;;;;5042498;28;19965;-63
2022/10/17 04:44:53;;;;;;;;;;;14.80;99.90;;;;;;4969667;28;20126;-64
2022/10/17 04:47:21;;;;;;;;;;;14.70;99.90;;;;;;4973956;28;19970;-63
2022/10/17 04:49:48;;;;;;;;;;;14.60;99.90;;;;;;4969291;28;19973;-63
2022/10/17 04:52:16;;;;;;;;;;;14.50;99.90;;;;;;4974478;28;20582;-64
2022/10/17 04:54:45;;;;;;;;;;;14.40;99.90;;;;;;4968028;28;19977;-63
2022/10/17 04:57:13;;;;;;;;;;;14.30;99.90;;;;;;4969415;28;20530;-63
2022/10/17 04:59:41;;;;;;;;;;;14.30;99.90;;;;;;4969319;28;20582;-63
2022/10/17 05:02:09;;;;;;;;;;;14.30;99.90;;;;;;4969713;28;19983;-63
2022/10/17 05:04:36;;;;;;;;;;;14.30;99.90;;;;;;4971276;28;20035;-63
2022/10/17 05:07:04;;;;;;;;;;;14.30;99.90;;;;;;4970439;28;19977;-64
2022/10/17 05:09:32;;;;;;;;;;;14.20;99.90;;;;;;4969079;28;19997;-64
2022/10/17 05:12:01;;;;;;;;;;;14.30;99.90;;;;;;4969413;28;19977;-63
2022/10/17 05:14:33;;;;;;;;;;;14.20;99.90;;;;;;4971220;28;20182;-63
2022/10/17 05:17:01;;;;;;;;;;;14.20;99.90;;;;;;4971423;28;20488;-64
2022/10/17 05:19:29;;;;;;;;;;;14.20;99.90;;;;;;4969376;28;19969;-63
2022/10/17 05:21:56;;;;;;;;;;;14.20;99.90;;;;;;4968197;28;20053;-63
2022/10/17 05:24:24;;;;;;;;;;;14.20;99.90;;;;;;4965520;28;19973;-64
2022/10/17 05:26:52;;;;;;;;;;;14.10;99.90;;;;;;4969619;28;19980;-63
2022/10/17 05:29:21;;;;;;;;;;;14.10;99.90;;;;;;4969044;28;19984;-63
2022/10/17 05:31:49;;;;;;;;;;;13.90;99.90;;;;;;4975307;28;19979;-63
2022/10/17 05:34:16;;;;;;;;;;;13.90;99.90;;;;;;4973305;28;20003;-63
2022/10/17 05:36:44;;;;;;;;;;;14.00;99.90;;;;;;4973748;28;19980;-63
2022/10/17 05:39:12;;;;;;;;;;;13.90;99.90;;;;;;4970566;28;20476;-63
2022/10/17 05:41:40;;;;;;;;;;;13.90;99.90;;;;;;4970855;28;19984;-63
2022/10/17 05:44:07;;;;;;;;;;;13.90;99.90;;;;;;4970381;28;19976;-63
2022/10/17 05:46:36;;;;;;;;;;;13.80;99.90;;;;;;4974160;28;20792;-63
2022/10/17 05:49:04;;;;;;;;;;;13.80;99.90;;;;;;4970505;28;20013;-64
2022/10/17 05:51:52;;;;;;;;;;;13.70;99.90;;;;;;4975131;28;19968;-63
2022/10/17 05:54:19;;;;;;;;;;;13.80;99.90;;;;;;4967349;28;19976;-64
2022/10/17 05:56:51;;;;;;;;;;;13.70;99.90;;;;;;4968157;28;20009;-64
2022/10/17 05:59:18;;;;;;;;;;;13.70;99.90;;;;;;4970164;28;19983;-63
2022/10/17 06:01:48;;;;;;;;;;;13.70;99.90;;;;;;4968319;28;19973;-63
2022/10/17 06:04:15;;;;;;;;;;;13.70;99.90;;;;;;4966891;28;20017;-63
2022/10/17 06:06:43;;;;;;;;;;;13.70;99.90;;;;;;4968738;28;19974;-64
2022/10/17 06:09:11;;;;;;;;;;;13.70;99.90;;;;;;4968472;28;21225;-63
2022/10/17 06:11:38;;;;;;;;;;;13.70;99.90;;;;;;4971296;28;21096;-63
2022/10/17 06:14:07;;;;;;;;;;;13.70;99.90;;;;;;4965704;28;20350;-64
2022/10/17 06:16:35;;;;;;;;;;;13.70;99.90;;;;;;4971690;28;19989;-63
2022/10/17 06:19:04;;;;;;;;;;;13.80;99.90;;;;;;4968325;28;19984;-63
2022/10/17 06:21:35;;;;;;;;;;;13.80;99.90;;;;;;4968251;28;20315;-63
2022/10/17 06:24:03;;;;;;;;;;;13.80;99.90;;;;;;4971194;28;19978;-62
2022/10/17 06:26:31;;;;;;;;;;;13.80;99.90;;;;;;4968166;28;19984;-63
2022/10/17 06:28:58;;;;;;;;;;;13.80;99.90;;;;;;4968323;28;19980;-62
2022/10/17 06:31:26;;;;;;;;;;;13.80;99.90;;;;;;5009702;23;19964;-63
2022/10/17 06:33:54;;;;;;;;;;;13.90;99.90;;;;;;5070329;28;19971;-64
2022/10/17 06:36:23;;;;;;;;;;;13.90;99.90;;;;;;5071938;28;19978;-63
2022/10/17 06:38:51;;;;;;;;;;;13.90;99.90;;;;;;5072286;28;19972;-64
2022/10/17 06:41:19;;;;;;;;;;;13.90;99.90;;;;;;5071765;28;19972;-64
2022/10/17 06:43:47;;;;;;;;;;;14.00;99.90;;;;;;5072306;28;19967;-64
2022/10/17 06:46:15;;;;;;;;;;;14.10;99.90;;;;;;5072271;28;20359;-64
2022/10/17 06:48:43;;;;;;;;;;;14.20;99.90;;;;;;5072230;28;20504;-64
2022/10/17 06:51:11;;;;;;;;;;;14.20;99.90;;;;;;5071774;28;19966;-64
2022/10/17 06:53:40;;;;;;;;;;;14.30;99.90;;;;;;5071626;28;19968;-64
2022/10/17 06:56:09;;;;;;;;;;;14.40;99.90;;;;;;5072159;28;20055;-64
2022/10/17 06:58:38;;;;;;;;;;;14.50;99.90;;;;;;5072092;28;20429;-64
2022/10/17 07:01:06;;;;;;;;;;;14.60;99.90;;;;;;5071592;28;20433;-64
2022/10/17 07:03:35;;;;;;;;;;;14.70;99.90;;;;;;5072318;28;20018;-64
2022/10/17 07:06:03;;;;;;;;;;;14.70;99.90;;;;;;5072107;28;19972;-64
2022/10/17 07:08:31;;;;;;;;;;;14.80;99.90;;;;;;5072080;28;19974;-63
2022/10/17 07:11:08;;;;;;;;;;;14.80;99.90;;;;;;5071593;28;20081;-64
2022/10/17 07:13:35;;;;;;;;;;;15.00;99.90;;;;;;5071970;28;20433;-64
2022/10/17 07:16:06;;;;;;;;;;;15.10;99.90;;;;;;5072041;28;19968;-64
2022/10/17 07:18:34;;;;;;;;;;;15.20;99.90;;;;;;5071911;28;19972;-64
2022/10/17 07:21:02;;;;;;;;;;;15.30;99.90;;;;;;5071593;28;19968;-64
2022/10/17 07:23:30;;;;;;;;;;;15.50;99.90;;;;;;5071946;28;20105;-64
2022/10/17 07:26:05;;;;;;;;;;;15.60;99.90;;;;;;5072015;28;20062;-64
2022/10/17 07:28:33;;;;;;;;;;;15.70;99.90;;;;;;5072348;28;19971;-64
2022/10/17 07:31:05;;;;;;;;;;;15.80;99.90;;;;;;5073739;28;19983;-64
2022/10/17 07:33:33;;;;;;;;;;;15.90;99.90;;;;;;5092077;28;20061;-64
2022/10/17 07:36:01;;;;;;;;;;;16.00;99.90;;;;;;5092349;28;20025;-63
2022/10/17 07:38:29;;;;;;;;;;;16.20;99.90;;;;;;5092161;28;19968;-64
2022/10/17 07:40:58;;;;;;;;;;;16.20;99.90;;;;;;5091291;28;19966;-64
2022/10/17 07:43:27;;;;;;;;;;;16.40;99.90;;;;;;5091936;28;19967;-64
2022/10/17 07:45:55;;;;;;;;;;;16.50;99.90;;;;;;5091854;28;20448;-64
2022/10/17 07:48:23;;;;;;;;;;;16.60;99.90;;;;;;5092286;28;20409;-63
2022/10/17 07:50:51;;;;;;;;;;;16.70;99.90;;;;;;5091419;28;19966;-64
2022/10/17 07:53:19;;;;;;;;;;;16.90;99.90;;;;;;5092000;28;20345;-64
2022/10/17 07:55:48;;;;;;;;;;;17.00;99.90;;;;;;5092058;28;19967;-64
2022/10/17 07:58:16;;;;;;;;;;;17.10;99.90;;;;;;5091666;28;20379;-64
2022/10/17 08:00:47;;;;;;;;;;;17.30;99.90;;;;;;5091307;28;19981;-64
2022/10/17 08:03:15;;;;;;;;;;;17.40;99.90;;;;;;5091690;28;19970;-64
2022/10/17 08:05:42;;;;;;;;;;;17.50;99.90;;;;;;5095375;28;19973;-64
2022/10/17 08:08:10;;;;;;;;;;;17.50;99.90;;;;;;5095640;28;19966;-65
2022/10/17 08:10:38;;;;;;;;;;;17.60;99.90;;;;;;5095197;28;19966;-64
2022/10/17 08:13:06;;;;;;;;;;;17.70;99.90;;;;;;5095405;28;19970;-64
2022/10/17 08:15:34;;;;;;;;;;;17.70;99.90;;;;;;5095718;28;19974;-64
2022/10/17 08:18:03;;;;;;;;;;;17.70;99.90;;;;;;5095257;28;19973;-64
2022/10/17 08:20:30;;;;;;;;;;;17.80;99.90;;;;;;5094934;28;19970;-64
2022/10/17 08:22:58;;;;;;;;;;;17.80;99.90;;;;;;5095480;28;20438;-64
2022/10/17 08:25:26;;;;;;;;;;;18.00;99.90;;;;;;5095746;28;20330;-64
2022/10/17 08:27:53;;;;;;;;;;;18.10;99.90;;;;;;5095249;28;19970;-64
2022/10/17 08:30:21;;;;;;;;;;;18.20;99.90;;;;;;5095057;28;20021;-64
2022/10/17 08:32:49;;;;;;;;;;;18.30;99.90;;;;;;5094919;28;20090;-64
2022/10/17 08:35:20;;;;;;;;;;;18.40;99.90;;;;;;5095116;28;20057;-64
2022/10/17 08:37:48;;;;;;;;;;;18.50;99.90;;;;;;5095007;28;20074;-64
2022/10/17 08:40:19;;;;;;;;;;;18.50;99.90;;;;;;5094248;28;20020;-63
2022/10/17 08:43:02;;;;;;;;;;;18.50;99.90;;;;;;5095007;28;19966;-64
2022/10/17 08:45:32;;;;;;;;;;;18.60;99.90;;;;;;5095005;28;19967;-64
2022/10/17 08:48:01;;;;;;;;;;;18.60;99.90;;;;;;5094822;28;19977;-66
2022/10/17 08:50:34;;;;;;;;;;;18.70;99.90;;;;;;5094647;28;19970;-66
2022/10/17 08:53:04;;;;;;;;;;;18.80;99.90;;;;;;5094904;28;19970;-66
2022/10/17 08:55:33;;;;;;;;;;;18.70;99.90;;;;;;5094771;28;19977;-66
2022/10/17 08:58:01;;;;;;;;;;;18.80;99.90;;;;;;5094609;28;19973;-64
2022/10/17 09:00:31;;;;;;;;;;;19.00;99.90;;;;;;5094179;28;20323;-64
2022/10/17 09:03:07;;;;;;;;;;;19.00;99.90;;;;;;5094431;28;19973;-64
2022/10/17 09:05:43;;;;;;;;;;;19.10;99.90;;;;;;5094517;28;19973;-64
2022/10/17 09:08:16;;;;;;;;;;;19.20;99.90;;;;;;5094567;28;19977;-64
2022/10/17 09:10:50;;;;;;;;;;;19.40;99.90;;;;;;5094150;28;20065;-64
2022/10/17 09:13:22;;;;;;;;;;;19.50;99.90;;;;;;5094378;28;20039;-64
2022/10/17 09:16:01;;;;;;;;;;;19.70;99.90;;;;;;5093790;28;19982;-64
2022/10/17 09:18:31;;;;;;;;;;;19.90;99.90;;;;;;5094394;28;19973;-64
2022/10/17 09:21:02;;;;;;;;;;;20.30;99.90;;;;;;5093769;28;19966;-64
2022/10/17 09:23:31;;;;;;;;;;;20.50;99.90;;;;;;5093913;28;19966;-64
2022/10/17 09:26:01;;;;;;;;;;;20.70;99.90;;;;;;5093819;28;19966;-63
2022/10/17 09:28:30;;;;;;;;;;;21.00;99.90;;;;;;5094117;28;19966;-64
2022/10/17 09:31:00;;;;;;;;;;;20.80;99.90;;;;;;5093666;28;19989;-64
2022/10/17 09:33:29;;;;;;;;;;;20.90;99.90;;;;;;5094060;28;20442;-64
2022/10/17 09:36:13;;;;;;;;;;;20.80;99.90;;;;;;5093749;28;19966;-64
2022/10/17 09:38:42;;;;;;;;;;;20.70;99.90;;;;;;5093865;28;20065;-64
2022/10/17 09:41:16;;;;;;;;;;;20.80;99.90;;;;;;5093149;28;19970;-64
2022/10/17 09:44:12;;;;;;;;;;;21.00;99.90;;;;;;5093811;28;19969;-64
2022/10/17 09:46:39;;;;;;;;;;;21.30;99.90;;;;;;5093679;28;20073;-64
2022/10/17 09:49:11;;;;;;;;;;;21.50;99.90;;;;;;5093627;28;19966;-64
2022/10/17 09:51:45;;;;;;;;;;;21.60;99.90;;;;;;5093407;28;19966;-64
2022/10/17 09:54:18;;;;;;;;;;;21.80;99.90;;;;;;5093573;28;20061;-64
2022/10/17 09:56:59;;;;;;;;;;;21.90;99.90;;;;;;5093506;28;20508;-64
2022/10/17 09:59:32;;;;;;;;;;;22.10;99.90;;;;;;5093426;28;19972;-63
2022/10/17 10:02:07;;;;;;;;;;;22.10;99.90;;;;;;5093338;28;20337;-63
2022/10/17 10:04:35;;;;;;;;;;;22.20;99.90;;;;;;5093403;28;19966;-64
2022/10/17 10:07:25;;;;;;;;;;;22.30;99.90;;;;;;5093275;28;20435;-64
2022/10/17 10:09:56;;;;;;;;;;;22.30;99.90;;;;;;5093285;28;19985;-64
2022/10/17 10:12:25;;;;;;;;;;;22.60;99.90;;;;;;5093207;28;19979;-64
2022/10/17 10:14:54;;;;;;;;;;;22.50;99.90;;;;;;5093533;28;19970;-64
2022/10/17 10:17:33;;;;;;;;;;;22.60;99.90;;;;;;5092835;28;20340;-64
2022/10/17 10:20:01;;;;;;;;;;;22.50;99.90;;;;;;5092875;28;19973;-64
2022/10/17 10:22:30;;;;;;;;;;;22.50;99.90;;;;;;5093123;28;19967;-63
2022/10/17 10:25:12;;;;;;;;;;;22.80;99.90;;;;;;5093052;28;20011;-64
2022/10/17 10:27:40;;;;;;;;;;;23.00;99.90;;;;;;5092078;28;20061;-64
2022/10/17 10:30:16;;;;;;;;;;;23.10;99.90;;;;;;5092732;28;20449;-64
2022/10/17 10:32:45;;;;;;;;;;;23.40;99.90;;;;;;5092763;28;19983;-64
2022/10/17 10:35:20;;;;;;;;;;;23.40;99.90;;;;;;5092959;28;19967;-64
2022/10/17 10:37:50;;;;;;;;;;;23.60;99.90;;;;;;5092602;28;19967;-63
2022/10/17 10:40:19;;;;;;;;;;;23.60;99.90;;;;;;5092599;28;19968;-64
2022/10/17 10:42:48;;;;;;;;;;;23.70;99.90;;;;;;5092490;28;19970;-64
2022/10/17 10:45:17;;;;;;;;;;;24.00;99.90;;;;;;5092433;28;19967;-64
2022/10/17 10:48:11;;;;;;;;;;;24.40;99.90;;;;;;5092642;28;20049;-64
2022/10/17 10:50:42;;;;;;;;;;;24.50;99.90;;;;;;5092182;28;19967;-64
2022/10/17 10:53:18;;;;;;;;;;;24.70;99.90;;;;;;5092445;28;20437;-64
2022/10/17 10:55:47;;;;;;;;;;;25.00;99.90;;;;;;5092537;28;19974;-64
2022/10/17 10:58:24;;;;;;;;;;;25.00;99.90;;;;;;5092385;28;19968;-63
2022/10/17 11:00:52;;;;;;;;;;;25.10;99.90;;;;;;5092211;28;20061;-64
2022/10/17 11:03:23;;;;;;;;;;;25.10;99.90;;;;;;5092346;28;19973;-64
2022/10/17 11:05:53;;;;;;;;;;;25.10;99.90;;;;;;5092329;28;19981;-64
2022/10/17 11:08:24;;;;;;;;;;;25.10;99.90;;;;;;5092248;28;19967;-64
2022/10/17 11:10:59;;;;;;;;;;;25.30;99.90;;;;;;5091892;28;19974;-64
2022/10/17 11:13:28;;;;;;;;;;;25.50;99.90;;;;;;5092259;28;20013;-64
2022/10/17 11:15:59;;;;;;;;;;;25.40;99.90;;;;;;5092176;28;19968;-63
2022/10/17 11:18:30;;;;;;;;;;;25.30;99.90;;;;;;5092255;28;20364;-64
2022/10/17 11:21:00;;;;;;;;;;;25.00;99.90;;;;;;5091792;28;20465;-64
2022/10/17 11:23:32;;;;;;;;;;;24.70;99.90;;;;;;5091818;28;20006;-64
2022/10/17 11:26:02;;;;;;;;;;;24.80;99.90;;;;;;5092162;28;20447;-64
2022/10/17 11:28:30;;;;;;;;;;;25.30;99.90;;;;;;5092063;28;19974;-64
2022/10/17 11:31:00;;;;;;;;;;;25.50;99.90;;;;;;5091562;28;20333;-64
2022/10/17 11:33:35;;;;;;;;;;;25.60;99.90;;;;;;5092018;28;20491;-64
2022/10/17 11:36:05;;;;;;;;;;;25.90;99.90;;;;;;5092216;28;19974;-64
2022/10/17 11:38:40;;;;;;;;;;;26.40;99.90;;;;;;5092340;28;19974;-64
2022/10/17 11:41:11;;;;;;;;;;;26.60;99.90;;;;;;5095905;28;19971;-64
2022/10/17 11:43:42;;;;;;;;;;;26.90;99.90;;;;;;5096007;28;19972;-64
2022/10/17 11:46:14;;;;;;;;;;;27.10;99.90;;;;;;5096008;28;20332;-64
2022/10/17 11:48:45;;;;;;;;;;;27.00;99.90;;;;;;5096035;28;19971;-62
2022/10/17 11:51:14;;;;;;;;;;;27.10;99.90;;;;;;5095721;28;19970;-64
2022/10/17 11:54:06;;;;;;;;;;;27.20;99.90;;;;;;5095853;28;20304;-63
2022/10/17 11:56:38;;;;;;;;;;;27.10;99.90;;;;;;5095855;28;19977;-64
2022/10/17 11:59:32;;;;;;;;;;;27.20;99.90;;;;;;5095967;28;19975;-64
2022/10/17 12:02:01;;;;;;;;;;;27.10;99.90;;;;;;5095604;28;19971;-64
2022/10/17 12:04:36;;;;;;;;;;;27.00;99.90;;;;;;5095733;28;20006;-64
2022/10/17 12:07:09;;;;;;;;;;;26.90;99.90;;;;;;5095722;28;19975;-64
2022/10/17 12:09:44;;;;;;;;;;;26.40;99.90;;;;;;5095446;28;20490;-63
2022/10/17 12:12:24;;;;;;;;;;;26.20;99.90;;;;;;5095436;28;20062;-64
2022/10/17 12:14:52;;;;;;;;;;;26.20;99.90;;;;;;5095491;28;19977;-64
2022/10/17 12:17:25;;;;;;;;;;;26.30;99.90;;;;;;5095363;28;19968;-64
2022/10/17 12:19:53;;;;;;;;;;;26.60;99.90;;;;;;5095139;28;19974;-64
2022/10/17 12:22:22;;;;;;;;;;;27.20;99.90;;;;;;5095098;28;20468;-64
2022/10/17 12:24:55;;;;;;;;;;;27.90;99.90;;;;;;5095388;28;19993;-64
2022/10/17 12:27:42;;;;;;;;;;;28.40;99.90;;;;;;5095459;28;19967;-64
2022/10/17 12:30:17;;;;;;;;;;;28.30;99.90;;;;;;5095049;28;20050;-63
2022/10/17 12:32:55;;;;;;;;;;;28.50;99.90;;;;;;5089411;22;20019;-64
2022/10/17 12:35:33;;;;;;;;;;;28.80;99.90;;;;;;5054547;28;19971;-64
2022/10/17 12:38:15;;;;;;;;;;;28.80;99.90;;;;;;5054904;28;19968;-63
2022/10/17 12:40:57;;;;;;;;;;;28.50;99.90;;;;;;5054232;28;19971;-63
2022/10/17 12:43:52;;;;;;;;;;;27.90;99.90;;;;;;5054442;28;20030;-63
2022/10/17 12:46:53;;;;;;;;;;;27.40;99.90;;;;;;5054838;28;19979;-64
2022/10/17 12:49:40;;;;;;;;;;;27.20;99.90;;;;;;5054702;28;19979;-63
2022/10/17 12:52:26;;;;;;;;;;;27.30;99.90;;;;;;5053261;28;19994;-64
2022/10/17 12:54:56;;;;;;;;;;;27.30;99.90;;;;;;5054549;28;20079;-64
2022/10/17 12:57:44;;;;;;;;;;;27.40;99.90;;;;;;5054321;28;20054;-64
2022/10/17 13:00:18;;;;;;;;;;;27.30;99.90;;;;;;5054261;28;20019;-64
2022/10/17 13:02:46;;;;;;;;;;;27.40;99.90;;;;;;5054644;28;20065;-64
2022/10/17 13:05:15;;;;;;;;;;;27.20;99.90;;;;;;5054472;28;19977;-64
2022/10/17 13:07:44;;;;;;;;;;;27.20;99.90;;;;;;5054158;28;20429;-64
2022/10/17 13:10:22;;;;;;;;;;;27.50;99.90;;;;;;5053899;28;19968;-64
2022/10/17 13:12:53;;;;;;;;;;;27.70;99.90;;;;;;5054038;28;19972;-64
2022/10/17 13:15:21;;;;;;;;;;;28.00;99.90;;;;;;5054155;28;20336;-64
2022/10/17 13:17:56;;;;;;;;;;;28.00;99.90;;;;;;5053919;28;19990;-64
2022/10/17 13:20:27;;;;;;;;;;;28.10;99.90;;;;;;5053579;28;19971;-64
2022/10/17 13:22:58;;;;;;;;;;;28.40;99.90;;;;;;5054060;28;19968;-64
2022/10/17 13:25:27;;;;;;;;;;;28.50;99.90;;;;;;5053816;28;19994;-64
2022/10/17 13:28:07;;;;;;;;;;;28.70;99.90;;;;;;5053705;28;20397;-64
2022/10/17 13:30:35;;;;;;;;;;;28.60;99.90;;;;;;5053853;28;19968;-64
2022/10/17 13:33:04;;;;;;;;;;;28.40;99.90;;;;;;5053547;28;19968;-64
2022/10/17 13:35:34;;;;;;;;;;;27.90;99.90;;;;;;5053646;28;20014;-64
2022/10/17 13:38:23;;;;;;;;;;;27.60;99.90;;;;;;5053431;28;19968;-64
2022/10/17 13:40:51;;;;;;;;;;;27.50;99.90;;;;;;5053062;28;20066;-64
2022/10/17 13:43:34;;;;;;;;;;;27.50;99.90;;;;;;5053643;28;19966;-64
2022/10/17 13:46:04;;;;;;;;;;;27.40;99.90;;;;;;5053594;28;19968;-63
2022/10/17 13:48:52;;;;;;;;;;;27.50;99.90;;;;;;5053619;28;19970;-64
2022/10/17 13:51:20;;;;;;;;;;;27.30;99.90;;;;;;5053111;28;19968;-64
2022/10/17 13:53:48;;;;;;;;;;;27.30;99.90;;;;;;5053409;28;19968;-64
2022/10/17 13:56:17;;;;;;;;;;;27.20;99.90;;;;;;5053348;28;19976;-64
2022/10/17 13:59:03;;;;;;;;;;;27.10;99.90;;;;;;5053125;28;20050;-64
2022/10/17 14:01:32;;;;;;;;;;;27.10;99.90;;;;;;5052588;28;19968;-64
2022/10/17 14:03:59;;;;;;;;;;;27.00;99.90;;;;;;5053175;28;19972;-64
2022/10/17 14:06:41;;;;;;;;;;;27.00;99.90;;;;;;5052940;28;19968;-64
2022/10/17 14:09:19;;;;;;;;;;;27.00;99.90;;;;;;5052944;28;20451;-64
2022/10/17 14:11:57;;;;;;;;;;;26.90;99.90;;;;;;5052821;28;19975;-64
2022/10/17 14:14:26;;;;;;;;;;;26.90;99.90;;;;;;5053029;28;20419;-64
2022/10/17 14:16:54;;;;;;;;;;;26.60;99.90;;;;;;5052850;28;20070;-64
2022/10/17 14:19:24;;;;;;;;;;;26.30;99.90;;;;;;5052782;28;19974;-64
2022/10/17 14:21:53;;;;;;;;;;;26.00;99.90;;;;;;5052615;28;19969;-64
2022/10/17 14:24:28;;;;;;;;;;;25.70;99.90;;;;;;5052775;28;19968;-66
2022/10/17 14:26:57;;;;;;;;;;;25.30;99.90;;;;;;5052751;28;20351;-65
2022/10/17 14:29:28;;;;;;;;;;;24.90;99.90;;;;;;5052734;28;20067;-64
2022/10/17 14:32:00;;;;;;;;;;;24.50;99.90;;;;;;5052249;28;19978;-64
2022/10/17 14:34:29;;;;;;;;;;;24.50;99.90;;;;;;5052612;28;19998;-63
2022/10/17 14:36:57;;;;;;;;;;;24.40;99.90;;;;;;5052564;28;19978;-65